sensor_id;sensor_type;location;lat;lon;timestamp;P1;durP1;ratioP1;P2;durP2;ratioP2
46084;SDS011;31823;47.032;8.310;2024-03-02T00:02:12;8.90;;;4.53;;
46084;SDS011;31823;47.032;8.310;2024-03-02T00:04:39;15.90;;;6.28;;
46084;SDS011;31823;47.032;8.310;2024-03-02T00:07:04;10.38;;;5.47;;
46084;SDS011;31823;47.032;8.310;2024-03-02T00:09:31;11.52;;;6.32;;
46084;SDS011;31823;47.032;8.310;2024-03-02T00:11:58;11.65;;;5.35;;
46084;SDS011;31823;47.032;8.310;2024-03-02T00:14:25;9.85;;;5.65;;
46084;SDS011;31823;47.032;8.310;2024-03-02T00:16:50;9.50;;;4.70;;
46084;SDS011;31823;47.032;8.310;2024-03-02T00:19:17;10.45;;;5.40;;
46084;SDS011;31823;47.032;8.310;2024-03-02T00:21:43;11.88;;;4.57;;
46084;SDS011;31823;47.032;8.310;2024-03-02T00:24:21;12.68;;;5.93;;
46084;SDS011;31823;47.032;8.310;2024-03-02T00:26:55;13.45;;;6.00;;
46084;SDS011;31823;47.032;8.310;2024-03-02T00:29:21;10.40;;;5.60;;
46084;SDS011;31823;47.032;8.310;2024-03-02T00:31:46;12.13;;;5.93;;
46084;SDS011;31823;47.032;8.310;2024-03-02T00:34:13;13.68;;;5.95;;
46084;SDS011;31823;47.032;8.310;2024-03-02T00:36:41;12.32;;;6.13;;
46084;SDS011;31823;47.032;8.310;2024-03-02T00:39:07;12.90;;;5.93;;
46084;SDS011;31823;47.032;8.310;2024-03-02T00:41:32;18.50;;;7.22;;
46084;SDS011;31823;47.032;8.310;2024-03-02T00:46:29;13.27;;;6.18;;
46084;SDS011;31823;47.032;8.310;2024-03-02T00:48:59;16.25;;;6.97;;
46084;SDS011;31823;47.032;8.310;2024-03-02T00:51:52;16.33;;;7.20;;
46084;SDS011;31823;47.032;8.310;2024-03-02T00:54:22;14.18;;;6.55;;
46084;SDS011;31823;47.032;8.310;2024-03-02T00:56:51;15.35;;;7.03;;
46084;SDS011;31823;47.032;8.310;2024-03-02T00:59:17;13.75;;;6.35;;
46084;SDS011;31823;47.032;8.310;2024-03-02T01:01:43;10.98;;;6.07;;
46084;SDS011;31823;47.032;8.310;2024-03-02T01:04:09;14.48;;;6.38;;
46084;SDS011;31823;47.032;8.310;2024-03-02T01:06:35;10.35;;;5.95;;
46084;SDS011;31823;47.032;8.310;2024-03-02T01:09:01;9.52;;;5.20;;
46084;SDS011;31823;47.032;8.310;2024-03-02T01:11:27;8.55;;;5.30;;
46084;SDS011;31823;47.032;8.310;2024-03-02T01:13:53;9.55;;;5.32;;
46084;SDS011;31823;47.032;8.310;2024-03-02T01:16:19;9.82;;;4.88;;
46084;SDS011;31823;47.032;8.310;2024-03-02T01:18:44;9.60;;;5.00;;
46084;SDS011;31823;47.032;8.310;2024-03-02T01:21:10;8.40;;;4.85;;
46084;SDS011;31823;47.032;8.310;2024-03-02T01:23:36;13.02;;;5.15;;
46084;SDS011;31823;47.032;8.310;2024-03-02T01:26:01;10.65;;;5.22;;
46084;SDS011;31823;47.032;8.310;2024-03-02T01:28:27;12.10;;;5.65;;
46084;SDS011;31823;47.032;8.310;2024-03-02T01:30:53;12.05;;;4.97;;
46084;SDS011;31823;47.032;8.310;2024-03-02T01:33:19;12.07;;;5.55;;
46084;SDS011;31823;47.032;8.310;2024-03-02T01:35:44;10.43;;;5.35;;
46084;SDS011;31823;47.032;8.310;2024-03-02T01:38:10;11.63;;;6.13;;
46084;SDS011;31823;47.032;8.310;2024-03-02T01:40:36;9.82;;;5.30;;
46084;SDS011;31823;47.032;8.310;2024-03-02T01:43:03;11.45;;;5.22;;
46084;SDS011;31823;47.032;8.310;2024-03-02T01:45:29;9.65;;;4.15;;
46084;SDS011;31823;47.032;8.310;2024-03-02T01:47:55;8.13;;;4.50;;
46084;SDS011;31823;47.032;8.310;2024-03-02T01:50:28;6.50;;;3.70;;
46084;SDS011;31823;47.032;8.310;2024-03-02T01:52:56;8.48;;;3.55;;
46084;SDS011;31823;47.032;8.310;2024-03-02T01:55:21;5.65;;;3.58;;
46084;SDS011;31823;47.032;8.310;2024-03-02T01:57:47;7.90;;;3.42;;
46084;SDS011;31823;47.032;8.310;2024-03-02T02:00:14;8.73;;;4.38;;
46084;SDS011;31823;47.032;8.310;2024-03-02T02:02:40;10.13;;;4.68;;
46084;SDS011;31823;47.032;8.310;2024-03-02T02:05:06;9.30;;;4.93;;
46084;SDS011;31823;47.032;8.310;2024-03-02T02:07:32;7.03;;;4.10;;
46084;SDS011;31823;47.032;8.310;2024-03-02T02:09:59;10.27;;;4.18;;
46084;SDS011;31823;47.032;8.310;2024-03-02T02:12:26;11.80;;;4.70;;
46084;SDS011;31823;47.032;8.310;2024-03-02T02:14:51;10.15;;;5.00;;
46084;SDS011;31823;47.032;8.310;2024-03-02T02:17:17;9.60;;;4.43;;
46084;SDS011;31823;47.032;8.310;2024-03-02T02:19:43;8.20;;;4.15;;
46084;SDS011;31823;47.032;8.310;2024-03-02T02:22:11;4.95;;;3.03;;
46084;SDS011;31823;47.032;8.310;2024-03-02T02:24:40;4.15;;;2.80;;
46084;SDS011;31823;47.032;8.310;2024-03-02T02:27:06;3.90;;;2.33;;
46084;SDS011;31823;47.032;8.310;2024-03-02T02:29:32;4.60;;;2.75;;
46084;SDS011;31823;47.032;8.310;2024-03-02T02:31:58;5.80;;;2.97;;
46084;SDS011;31823;47.032;8.310;2024-03-02T02:34:24;4.90;;;3.10;;
46084;SDS011;31823;47.032;8.310;2024-03-02T02:36:49;3.75;;;2.38;;
46084;SDS011;31823;47.032;8.310;2024-03-02T02:39:15;5.63;;;2.65;;
46084;SDS011;31823;47.032;8.310;2024-03-02T02:41:43;5.35;;;3.00;;
46084;SDS011;31823;47.032;8.310;2024-03-02T02:44:08;4.20;;;2.60;;
46084;SDS011;31823;47.032;8.310;2024-03-02T02:46:36;5.75;;;2.95;;
46084;SDS011;31823;47.032;8.310;2024-03-02T02:49:03;6.78;;;3.05;;
46084;SDS011;31823;47.032;8.310;2024-03-02T02:51:28;7.65;;;3.92;;
46084;SDS011;31823;47.032;8.310;2024-03-02T02:53:54;8.18;;;4.07;;
46084;SDS011;31823;47.032;8.310;2024-03-02T02:56:19;8.40;;;4.28;;
46084;SDS011;31823;47.032;8.310;2024-03-02T02:58:45;13.23;;;5.38;;
46084;SDS011;31823;47.032;8.310;2024-03-02T03:01:10;8.85;;;3.92;;
46084;SDS011;31823;47.032;8.310;2024-03-02T03:03:36;9.63;;;4.63;;
46084;SDS011;31823;47.032;8.310;2024-03-02T03:06:02;10.82;;;5.07;;
46084;SDS011;31823;47.032;8.310;2024-03-02T03:08:27;9.57;;;4.45;;
46084;SDS011;31823;47.032;8.310;2024-03-02T03:10:53;9.15;;;4.68;;
46084;SDS011;31823;47.032;8.310;2024-03-02T03:13:19;10.02;;;5.20;;
46084;SDS011;31823;47.032;8.310;2024-03-02T03:15:45;11.07;;;5.13;;
46084;SDS011;31823;47.032;8.310;2024-03-02T03:18:10;8.07;;;4.40;;
46084;SDS011;31823;47.032;8.310;2024-03-02T03:20:36;9.35;;;4.50;;
46084;SDS011;31823;47.032;8.310;2024-03-02T03:23:02;11.57;;;4.80;;
46084;SDS011;31823;47.032;8.310;2024-03-02T03:25:29;6.07;;;3.45;;
46084;SDS011;31823;47.032;8.310;2024-03-02T03:27:55;5.72;;;3.28;;
46084;SDS011;31823;47.032;8.310;2024-03-02T03:30:20;6.10;;;3.40;;
46084;SDS011;31823;47.032;8.310;2024-03-02T03:32:46;5.18;;;2.67;;
46084;SDS011;31823;47.032;8.310;2024-03-02T03:35:13;4.78;;;2.53;;
46084;SDS011;31823;47.032;8.310;2024-03-02T03:37:40;4.28;;;2.78;;
46084;SDS011;31823;47.032;8.310;2024-03-02T03:40:06;5.75;;;2.75;;
46084;SDS011;31823;47.032;8.310;2024-03-02T03:42:35;3.85;;;2.70;;
46084;SDS011;31823;47.032;8.310;2024-03-02T03:45:01;7.13;;;3.10;;
46084;SDS011;31823;47.032;8.310;2024-03-02T03:47:27;6.07;;;3.25;;
46084;SDS011;31823;47.032;8.310;2024-03-02T03:49:52;8.82;;;2.40;;
46084;SDS011;31823;47.032;8.310;2024-03-02T03:52:18;4.60;;;2.70;;
46084;SDS011;31823;47.032;8.310;2024-03-02T03:54:43;4.15;;;2.28;;
46084;SDS011;31823;47.032;8.310;2024-03-02T03:57:09;3.50;;;2.05;;
46084;SDS011;31823;47.032;8.310;2024-03-02T03:59:35;2.58;;;1.90;;
46084;SDS011;31823;47.032;8.310;2024-03-02T04:02:02;2.13;;;2.00;;
46084;SDS011;31823;47.032;8.310;2024-03-02T04:04:28;2.95;;;1.65;;
46084;SDS011;31823;47.032;8.310;2024-03-02T04:06:53;3.60;;;2.03;;
46084;SDS011;31823;47.032;8.310;2024-03-02T04:09:19;3.15;;;1.67;;
46084;SDS011;31823;47.032;8.310;2024-03-02T04:11:45;2.05;;;1.60;;
46084;SDS011;31823;47.032;8.310;2024-03-02T04:14:11;2.13;;;1.33;;
46084;SDS011;31823;47.032;8.310;2024-03-02T04:16:37;2.22;;;1.27;;
46084;SDS011;31823;47.032;8.310;2024-03-02T04:19:04;2.28;;;1.65;;
46084;SDS011;31823;47.032;8.310;2024-03-02T04:21:29;1.33;;;1.23;;
46084;SDS011;31823;47.032;8.310;2024-03-02T04:23:55;2.40;;;1.08;;
46084;SDS011;31823;47.032;8.310;2024-03-02T04:26:24;5.68;;;1.50;;
46084;SDS011;31823;47.032;8.310;2024-03-02T04:28:50;1.75;;;1.33;;
46084;SDS011;31823;47.032;8.310;2024-03-02T04:31:19;1.92;;;1.40;;
46084;SDS011;31823;47.032;8.310;2024-03-02T04:33:45;5.90;;;1.42;;
46084;SDS011;31823;47.032;8.310;2024-03-02T04:36:10;3.30;;;1.52;;
46084;SDS011;31823;47.032;8.310;2024-03-02T04:38:36;1.88;;;1.33;;
46084;SDS011;31823;47.032;8.310;2024-03-02T04:41:03;2.60;;;1.58;;
46084;SDS011;31823;47.032;8.310;2024-03-02T04:43:31;1.33;;;1.23;;
46084;SDS011;31823;47.032;8.310;2024-03-02T04:45:57;1.48;;;1.33;;
46084;SDS011;31823;47.032;8.310;2024-03-02T04:48:23;1.95;;;1.45;;
46084;SDS011;31823;47.032;8.310;2024-03-02T04:50:49;2.53;;;1.42;;
46084;SDS011;31823;47.032;8.310;2024-03-02T04:53:15;1.45;;;1.35;;
46084;SDS011;31823;47.032;8.310;2024-03-02T04:55:40;1.55;;;1.35;;
46084;SDS011;31823;47.032;8.310;2024-03-02T04:58:06;1.50;;;1.40;;
46084;SDS011;31823;47.032;8.310;2024-03-02T05:00:32;0.88;;;0.88;;
46084;SDS011;31823;47.032;8.310;2024-03-02T05:02:57;2.05;;;1.42;;
46084;SDS011;31823;47.032;8.310;2024-03-02T05:05:23;2.08;;;1.60;;
46084;SDS011;31823;47.032;8.310;2024-03-02T05:07:49;1.40;;;1.30;;
46084;SDS011;31823;47.032;8.310;2024-03-02T05:10:14;1.45;;;1.30;;
46084;SDS011;31823;47.032;8.310;2024-03-02T05:12:40;1.88;;;1.60;;
46084;SDS011;31823;47.032;8.310;2024-03-02T05:15:06;1.52;;;1.42;;
46084;SDS011;31823;47.032;8.310;2024-03-02T05:17:32;1.73;;;1.63;;
46084;SDS011;31823;47.032;8.310;2024-03-02T05:19:58;2.67;;;1.63;;
46084;SDS011;31823;47.032;8.310;2024-03-02T05:22:24;1.80;;;1.45;;
46084;SDS011;31823;47.032;8.310;2024-03-02T05:24:50;2.72;;;1.60;;
46084;SDS011;31823;47.032;8.310;2024-03-02T05:27:15;2.90;;;2.10;;
46084;SDS011;31823;47.032;8.310;2024-03-02T05:29:41;3.80;;;1.95;;
46084;SDS011;31823;47.032;8.310;2024-03-02T05:32:06;2.70;;;1.45;;
46084;SDS011;31823;47.032;8.310;2024-03-02T05:34:32;2.13;;;1.92;;
46084;SDS011;31823;47.032;8.310;2024-03-02T05:37:00;2.72;;;1.67;;
46084;SDS011;31823;47.032;8.310;2024-03-02T05:39:26;3.22;;;2.10;;
46084;SDS011;31823;47.032;8.310;2024-03-02T05:41:51;2.65;;;1.63;;
46084;SDS011;31823;47.032;8.310;2024-03-02T05:44:17;4.07;;;2.33;;
46084;SDS011;31823;47.032;8.310;2024-03-02T05:46:43;4.55;;;2.53;;
46084;SDS011;31823;47.032;8.310;2024-03-02T05:49:09;3.67;;;1.95;;
46084;SDS011;31823;47.032;8.310;2024-03-02T05:51:35;4.35;;;2.47;;
46084;SDS011;31823;47.032;8.310;2024-03-02T05:54:00;3.33;;;2.53;;
46084;SDS011;31823;47.032;8.310;2024-03-02T05:56:26;3.17;;;2.35;;
46084;SDS011;31823;47.032;8.310;2024-03-02T05:58:52;4.82;;;2.90;;
46084;SDS011;31823;47.032;8.310;2024-03-02T06:01:32;3.88;;;2.55;;
46084;SDS011;31823;47.032;8.310;2024-03-02T06:03:58;3.67;;;2.67;;
46084;SDS011;31823;47.032;8.310;2024-03-02T06:06:24;5.38;;;2.70;;
46084;SDS011;31823;47.032;8.310;2024-03-02T06:08:50;3.67;;;1.92;;
46084;SDS011;31823;47.032;8.310;2024-03-02T06:11:16;4.22;;;2.47;;
46084;SDS011;31823;47.032;8.310;2024-03-02T06:13:42;2.72;;;1.90;;
46084;SDS011;31823;47.032;8.310;2024-03-02T06:16:08;3.28;;;2.05;;
46084;SDS011;31823;47.032;8.310;2024-03-02T06:18:33;2.45;;;1.70;;
46084;SDS011;31823;47.032;8.310;2024-03-02T06:20:59;2.13;;;1.90;;
46084;SDS011;31823;47.032;8.310;2024-03-02T06:23:26;2.67;;;1.70;;
46084;SDS011;31823;47.032;8.310;2024-03-02T06:25:52;3.65;;;2.08;;
46084;SDS011;31823;47.032;8.310;2024-03-02T06:28:17;2.45;;;2.00;;
46084;SDS011;31823;47.032;8.310;2024-03-02T06:30:43;7.40;;;2.50;;
46084;SDS011;31823;47.032;8.310;2024-03-02T06:33:09;6.68;;;1.98;;
46084;SDS011;31823;47.032;8.310;2024-03-02T06:35:35;3.70;;;2.20;;
46084;SDS011;31823;47.032;8.310;2024-03-02T06:38:00;3.67;;;2.15;;
46084;SDS011;31823;47.032;8.310;2024-03-02T06:40:26;4.90;;;2.50;;
46084;SDS011;31823;47.032;8.310;2024-03-02T06:42:52;4.10;;;2.30;;
46084;SDS011;31823;47.032;8.310;2024-03-02T06:45:18;5.25;;;2.80;;
46084;SDS011;31823;47.032;8.310;2024-03-02T06:47:44;4.68;;;2.42;;
46084;SDS011;31823;47.032;8.310;2024-03-02T06:50:09;5.38;;;2.90;;
46084;SDS011;31823;47.032;8.310;2024-03-02T06:52:35;3.47;;;2.35;;
46084;SDS011;31823;47.032;8.310;2024-03-02T06:55:01;5.85;;;2.70;;
46084;SDS011;31823;47.032;8.310;2024-03-02T06:57:27;4.22;;;2.45;;
46084;SDS011;31823;47.032;8.310;2024-03-02T06:59:52;4.25;;;3.00;;
46084;SDS011;31823;47.032;8.310;2024-03-02T07:02:22;6.22;;;2.33;;
46084;SDS011;31823;47.032;8.310;2024-03-02T07:04:48;3.20;;;2.33;;
46084;SDS011;31823;47.032;8.310;2024-03-02T07:07:13;5.53;;;2.70;;
46084;SDS011;31823;47.032;8.310;2024-03-02T07:09:39;5.82;;;2.92;;
46084;SDS011;31823;47.032;8.310;2024-03-02T07:12:05;3.60;;;2.92;;
46084;SDS011;31823;47.032;8.310;2024-03-02T07:14:30;4.68;;;3.00;;
46084;SDS011;31823;47.032;8.310;2024-03-02T07:17:14;3.22;;;2.33;;
46084;SDS011;31823;47.032;8.310;2024-03-02T07:19:40;5.40;;;2.08;;
46084;SDS011;31823;47.032;8.310;2024-03-02T07:22:06;7.30;;;3.03;;
46084;SDS011;31823;47.032;8.310;2024-03-02T07:24:33;4.38;;;3.03;;
46084;SDS011;31823;47.032;8.310;2024-03-02T07:27:05;6.10;;;2.80;;
46084;SDS011;31823;47.032;8.310;2024-03-02T07:29:31;3.75;;;2.55;;
46084;SDS011;31823;47.032;8.310;2024-03-02T07:31:58;6.70;;;3.17;;
46084;SDS011;31823;47.032;8.310;2024-03-02T07:34:24;6.72;;;2.95;;
46084;SDS011;31823;47.032;8.310;2024-03-02T07:36:50;5.82;;;2.65;;
46084;SDS011;31823;47.032;8.310;2024-03-02T07:39:15;5.22;;;3.28;;
46084;SDS011;31823;47.032;8.310;2024-03-02T07:41:41;5.45;;;3.03;;
46084;SDS011;31823;47.032;8.310;2024-03-02T07:44:07;8.48;;;4.30;;
46084;SDS011;31823;47.032;8.310;2024-03-02T07:46:32;6.43;;;3.30;;
46084;SDS011;31823;47.032;8.310;2024-03-02T07:48:58;5.32;;;3.22;;
46084;SDS011;31823;47.032;8.310;2024-03-02T07:51:24;4.32;;;2.92;;
46084;SDS011;31823;47.032;8.310;2024-03-02T07:53:49;5.40;;;3.60;;
46084;SDS011;31823;47.032;8.310;2024-03-02T07:56:15;6.63;;;3.78;;
46084;SDS011;31823;47.032;8.310;2024-03-02T07:58:47;5.20;;;3.15;;
46084;SDS011;31823;47.032;8.310;2024-03-02T08:01:14;4.97;;;3.15;;
46084;SDS011;31823;47.032;8.310;2024-03-02T08:03:39;5.15;;;3.20;;
46084;SDS011;31823;47.032;8.310;2024-03-02T08:06:05;5.13;;;3.22;;
46084;SDS011;31823;47.032;8.310;2024-03-02T08:08:31;5.22;;;3.17;;
46084;SDS011;31823;47.032;8.310;2024-03-02T08:10:57;6.03;;;3.70;;
46084;SDS011;31823;47.032;8.310;2024-03-02T08:13:22;7.60;;;3.70;;
46084;SDS011;31823;47.032;8.310;2024-03-02T08:15:48;7.55;;;4.15;;
46084;SDS011;31823;47.032;8.310;2024-03-02T08:18:14;5.07;;;3.13;;
46084;SDS011;31823;47.032;8.310;2024-03-02T08:20:40;5.18;;;3.53;;
46084;SDS011;31823;47.032;8.310;2024-03-02T08:23:06;7.97;;;4.70;;
46084;SDS011;31823;47.032;8.310;2024-03-02T08:25:33;6.88;;;4.20;;
46084;SDS011;31823;47.032;8.310;2024-03-02T08:27:58;6.05;;;3.45;;
46084;SDS011;31823;47.032;8.310;2024-03-02T08:30:26;5.75;;;3.90;;
46084;SDS011;31823;47.032;8.310;2024-03-02T08:32:51;7.15;;;4.55;;
46084;SDS011;31823;47.032;8.310;2024-03-02T08:35:17;8.95;;;4.20;;
46084;SDS011;31823;47.032;8.310;2024-03-02T08:37:42;8.77;;;4.40;;
46084;SDS011;31823;47.032;8.310;2024-03-02T08:40:08;8.88;;;4.55;;
46084;SDS011;31823;47.032;8.310;2024-03-02T08:42:35;6.63;;;4.07;;
46084;SDS011;31823;47.032;8.310;2024-03-02T08:45:01;7.53;;;4.45;;
46084;SDS011;31823;47.032;8.310;2024-03-02T08:47:27;5.93;;;4.10;;
46084;SDS011;31823;47.032;8.310;2024-03-02T08:49:52;6.03;;;3.58;;
46084;SDS011;31823;47.032;8.310;2024-03-02T08:52:18;6.25;;;3.78;;
46084;SDS011;31823;47.032;8.310;2024-03-02T08:54:44;6.32;;;4.07;;
46084;SDS011;31823;47.032;8.310;2024-03-02T08:57:09;5.50;;;3.88;;
46084;SDS011;31823;47.032;8.310;2024-03-02T08:59:35;6.03;;;3.95;;
46084;SDS011;31823;47.032;8.310;2024-03-02T09:02:01;6.43;;;4.03;;
46084;SDS011;31823;47.032;8.310;2024-03-02T09:04:29;6.22;;;3.67;;
46084;SDS011;31823;47.032;8.310;2024-03-02T09:06:55;7.10;;;3.42;;
46084;SDS011;31823;47.032;8.310;2024-03-02T09:09:20;3.55;;;2.92;;
46084;SDS011;31823;47.032;8.310;2024-03-02T09:11:46;3.65;;;2.25;;
46084;SDS011;31823;47.032;8.310;2024-03-02T09:14:12;3.42;;;1.73;;
46084;SDS011;31823;47.032;8.310;2024-03-02T09:16:39;1.83;;;1.50;;
46084;SDS011;31823;47.032;8.310;2024-03-02T09:19:05;2.13;;;1.85;;
46084;SDS011;31823;47.032;8.310;2024-03-02T09:21:31;2.47;;;1.90;;
46084;SDS011;31823;47.032;8.310;2024-03-02T09:23:56;2.22;;;1.67;;
46084;SDS011;31823;47.032;8.310;2024-03-02T09:26:22;2.10;;;1.90;;
46084;SDS011;31823;47.032;8.310;2024-03-02T09:28:49;2.67;;;1.90;;
46084;SDS011;31823;47.032;8.310;2024-03-02T09:31:15;2.17;;;1.98;;
46084;SDS011;31823;47.032;8.310;2024-03-02T09:33:41;1.80;;;1.67;;
46084;SDS011;31823;47.032;8.310;2024-03-02T09:36:16;4.55;;;2.90;;
46084;SDS011;31823;47.032;8.310;2024-03-02T09:38:45;3.50;;;2.75;;
46084;SDS011;31823;47.032;8.310;2024-03-02T09:41:11;5.93;;;3.45;;
46084;SDS011;31823;47.032;8.310;2024-03-02T09:43:37;6.07;;;4.25;;
46084;SDS011;31823;47.032;8.310;2024-03-02T09:46:03;8.30;;;4.88;;
46084;SDS011;31823;47.032;8.310;2024-03-02T09:48:29;7.25;;;5.20;;
46084;SDS011;31823;47.032;8.310;2024-03-02T09:50:54;8.05;;;4.97;;
46084;SDS011;31823;47.032;8.310;2024-03-02T09:53:21;7.53;;;5.13;;
46084;SDS011;31823;47.032;8.310;2024-03-02T09:55:48;8.63;;;4.60;;
46084;SDS011;31823;47.032;8.310;2024-03-02T09:58:13;6.32;;;4.30;;
46084;SDS011;31823;47.032;8.310;2024-03-02T10:00:39;4.80;;;3.80;;
46084;SDS011;31823;47.032;8.310;2024-03-02T10:03:05;6.60;;;4.18;;
46084;SDS011;31823;47.032;8.310;2024-03-02T10:05:36;7.43;;;4.28;;
46084;SDS011;31823;47.032;8.310;2024-03-02T10:08:02;8.10;;;4.57;;
46084;SDS011;31823;47.032;8.310;2024-03-02T10:10:35;6.38;;;4.45;;
46084;SDS011;31823;47.032;8.310;2024-03-02T10:13:08;8.10;;;5.00;;
46084;SDS011;31823;47.032;8.310;2024-03-02T10:15:35;6.65;;;4.35;;
46084;SDS011;31823;47.032;8.310;2024-03-02T10:18:11;8.10;;;4.97;;
46084;SDS011;31823;47.032;8.310;2024-03-02T10:20:37;8.57;;;5.00;;
46084;SDS011;31823;47.032;8.310;2024-03-02T10:23:14;7.68;;;4.90;;
46084;SDS011;31823;47.032;8.310;2024-03-02T10:25:41;9.10;;;5.38;;
46084;SDS011;31823;47.032;8.310;2024-03-02T10:28:07;10.05;;;5.50;;
46084;SDS011;31823;47.032;8.310;2024-03-02T10:30:33;8.43;;;4.97;;
46084;SDS011;31823;47.032;8.310;2024-03-02T10:33:00;8.45;;;5.40;;
46084;SDS011;31823;47.032;8.310;2024-03-02T10:35:27;9.25;;;5.30;;
46084;SDS011;31823;47.032;8.310;2024-03-02T10:37:53;12.23;;;5.63;;
46084;SDS011;31823;47.032;8.310;2024-03-02T10:40:22;9.18;;;4.68;;
46084;SDS011;31823;47.032;8.310;2024-03-02T10:42:49;7.60;;;4.22;;
46084;SDS011;31823;47.032;8.310;2024-03-02T10:45:16;8.00;;;4.05;;
46084;SDS011;31823;47.032;8.310;2024-03-02T10:47:44;7.68;;;4.43;;
46084;SDS011;31823;47.032;8.310;2024-03-02T10:50:12;5.88;;;3.47;;
46084;SDS011;31823;47.032;8.310;2024-03-02T10:52:38;4.22;;;2.90;;
46084;SDS011;31823;47.032;8.310;2024-03-02T10:55:05;5.32;;;3.25;;
46084;SDS011;31823;47.032;8.310;2024-03-02T10:57:41;5.60;;;3.58;;
46084;SDS011;31823;47.032;8.310;2024-03-02T11:00:11;4.88;;;2.97;;
46084;SDS011;31823;47.032;8.310;2024-03-02T11:02:42;3.50;;;2.72;;
46084;SDS011;31823;47.032;8.310;2024-03-02T11:05:15;5.32;;;3.17;;
46084;SDS011;31823;47.032;8.310;2024-03-02T11:07:50;5.85;;;3.50;;
46084;SDS011;31823;47.032;8.310;2024-03-02T11:10:18;5.05;;;3.67;;
46084;SDS011;31823;47.032;8.310;2024-03-02T11:12:53;5.80;;;3.92;;
46084;SDS011;31823;47.032;8.310;2024-03-02T11:15:25;6.30;;;4.03;;
46084;SDS011;31823;47.032;8.310;2024-03-02T11:17:52;5.75;;;3.50;;
46084;SDS011;31823;47.032;8.310;2024-03-02T11:20:18;6.78;;;3.67;;
46084;SDS011;31823;47.032;8.310;2024-03-02T11:22:45;7.32;;;4.03;;
46084;SDS011;31823;47.032;8.310;2024-03-02T11:25:24;6.00;;;3.97;;
46084;SDS011;31823;47.032;8.310;2024-03-02T11:32:57;6.30;;;4.47;;
46084;SDS011;31823;47.032;8.310;2024-03-02T11:35:26;9.55;;;5.70;;
46084;SDS011;31823;47.032;8.310;2024-03-02T11:37:55;8.52;;;4.97;;
46084;SDS011;31823;47.032;8.310;2024-03-02T11:40:27;8.77;;;5.72;;
46084;SDS011;31823;47.032;8.310;2024-03-02T11:42:53;12.02;;;6.40;;
46084;SDS011;31823;47.032;8.310;2024-03-02T11:45:25;11.45;;;6.40;;
46084;SDS011;31823;47.032;8.310;2024-03-02T11:47:54;12.07;;;6.25;;
46084;SDS011;31823;47.032;8.310;2024-03-02T11:50:57;9.68;;;5.47;;
46084;SDS011;31823;47.032;8.310;2024-03-02T11:53:15;10.20;;;5.72;;
46084;SDS011;31823;47.032;8.310;2024-03-02T11:55:42;10.68;;;5.53;;
46084;SDS011;31823;47.032;8.310;2024-03-02T11:58:13;8.38;;;5.38;;
46084;SDS011;31823;47.032;8.310;2024-03-02T12:00:46;8.93;;;5.55;;
46084;SDS011;31823;47.032;8.310;2024-03-02T12:03:14;7.82;;;4.72;;
46084;SDS011;31823;47.032;8.310;2024-03-02T12:05:40;8.30;;;4.32;;
46084;SDS011;31823;47.032;8.310;2024-03-02T12:08:07;8.32;;;5.13;;
46084;SDS011;31823;47.032;8.310;2024-03-02T12:10:33;7.63;;;4.82;;
46084;SDS011;31823;47.032;8.310;2024-03-02T12:13:01;8.93;;;5.03;;
46084;SDS011;31823;47.032;8.310;2024-03-02T12:15:28;6.43;;;4.55;;
46084;SDS011;31823;47.032;8.310;2024-03-02T12:17:59;7.07;;;4.22;;
46084;SDS011;31823;47.032;8.310;2024-03-02T12:20:26;7.13;;;4.07;;
46084;SDS011;31823;47.032;8.310;2024-03-02T12:22:54;6.72;;;4.72;;
46084;SDS011;31823;47.032;8.310;2024-03-02T12:25:22;5.57;;;3.67;;
46084;SDS011;31823;47.032;8.310;2024-03-02T12:27:50;6.43;;;3.80;;
46084;SDS011;31823;47.032;8.310;2024-03-02T12:30:20;7.75;;;4.22;;
46084;SDS011;31823;47.032;8.310;2024-03-02T12:32:47;6.25;;;3.90;;
46084;SDS011;31823;47.032;8.310;2024-03-02T12:35:13;7.38;;;4.25;;
46084;SDS011;31823;47.032;8.310;2024-03-02T12:37:48;5.93;;;3.53;;
46084;SDS011;31823;47.032;8.310;2024-03-02T12:40:15;6.82;;;3.97;;
46084;SDS011;31823;47.032;8.310;2024-03-02T12:42:45;8.30;;;4.30;;
46084;SDS011;31823;47.032;8.310;2024-03-02T12:45:11;7.03;;;4.25;;
46084;SDS011;31823;47.032;8.310;2024-03-02T12:47:38;5.90;;;3.83;;
46084;SDS011;31823;47.032;8.310;2024-03-02T12:50:05;6.60;;;3.90;;
46084;SDS011;31823;47.032;8.310;2024-03-02T12:52:31;5.55;;;3.58;;
46084;SDS011;31823;47.032;8.310;2024-03-02T12:54:58;6.72;;;4.30;;
46084;SDS011;31823;47.032;8.310;2024-03-02T12:57:25;8.02;;;5.13;;
46084;SDS011;31823;47.032;8.310;2024-03-02T12:59:52;9.52;;;5.20;;
46084;SDS011;31823;47.032;8.310;2024-03-02T13:02:22;7.95;;;5.07;;
46084;SDS011;31823;47.032;8.310;2024-03-02T13:04:54;7.82;;;4.75;;
46084;SDS011;31823;47.032;8.310;2024-03-02T13:07:20;7.25;;;4.65;;
46084;SDS011;31823;47.032;8.310;2024-03-02T13:09:50;8.30;;;5.35;;
46084;SDS011;31823;47.032;8.310;2024-03-02T13:12:16;8.13;;;4.95;;
46084;SDS011;31823;47.032;8.310;2024-03-02T13:14:42;8.07;;;4.65;;
46084;SDS011;31823;47.032;8.310;2024-03-02T13:17:08;7.65;;;5.10;;
46084;SDS011;31823;47.032;8.310;2024-03-02T13:19:34;7.85;;;4.82;;
46084;SDS011;31823;47.032;8.310;2024-03-02T13:22:00;9.02;;;5.25;;
46084;SDS011;31823;47.032;8.310;2024-03-02T13:24:29;8.35;;;4.90;;
46084;SDS011;31823;47.032;8.310;2024-03-02T13:26:55;8.23;;;4.88;;
46084;SDS011;31823;47.032;8.310;2024-03-02T13:29:23;8.02;;;5.25;;
46084;SDS011;31823;47.032;8.310;2024-03-02T13:31:49;8.35;;;5.32;;
46084;SDS011;31823;47.032;8.310;2024-03-02T13:34:15;7.38;;;4.97;;
46084;SDS011;31823;47.032;8.310;2024-03-02T13:36:40;10.15;;;5.60;;
46084;SDS011;31823;47.032;8.310;2024-03-02T13:39:06;10.25;;;4.85;;
46084;SDS011;31823;47.032;8.310;2024-03-02T13:41:34;7.43;;;5.05;;
46084;SDS011;31823;47.032;8.310;2024-03-02T13:44:00;6.43;;;4.60;;
46084;SDS011;31823;47.032;8.310;2024-03-02T13:46:26;8.57;;;4.45;;
46084;SDS011;31823;47.032;8.310;2024-03-02T13:48:52;7.68;;;4.85;;
46084;SDS011;31823;47.032;8.310;2024-03-02T13:51:19;8.05;;;5.43;;
46084;SDS011;31823;47.032;8.310;2024-03-02T13:53:44;6.93;;;4.80;;
46084;SDS011;31823;47.032;8.310;2024-03-02T13:56:10;9.38;;;5.20;;
46084;SDS011;31823;47.032;8.310;2024-03-02T13:58:36;8.82;;;5.32;;
46084;SDS011;31823;47.032;8.310;2024-03-02T14:01:02;7.55;;;5.25;;
46084;SDS011;31823;47.032;8.310;2024-03-02T14:03:29;9.85;;;5.38;;
46084;SDS011;31823;47.032;8.310;2024-03-02T14:05:55;10.32;;;5.70;;
46084;SDS011;31823;47.032;8.310;2024-03-02T14:08:21;8.82;;;5.53;;
46084;SDS011;31823;47.032;8.310;2024-03-02T14:10:46;7.82;;;4.95;;
46084;SDS011;31823;47.032;8.310;2024-03-02T14:13:12;8.77;;;5.22;;
46084;SDS011;31823;47.032;8.310;2024-03-02T14:15:38;8.80;;;5.18;;
46084;SDS011;31823;47.032;8.310;2024-03-02T14:18:04;7.97;;;5.13;;
46084;SDS011;31823;47.032;8.310;2024-03-02T14:20:30;8.80;;;5.03;;
46084;SDS011;31823;47.032;8.310;2024-03-02T14:22:57;9.93;;;5.13;;
46084;SDS011;31823;47.032;8.310;2024-03-02T14:25:24;9.93;;;5.22;;
46084;SDS011;31823;47.032;8.310;2024-03-02T14:27:50;10.63;;;6.13;;
46084;SDS011;31823;47.032;8.310;2024-03-02T14:30:16;8.43;;;5.15;;
46084;SDS011;31823;47.032;8.310;2024-03-02T14:32:41;7.65;;;4.97;;
46084;SDS011;31823;47.032;8.310;2024-03-02T14:35:07;8.20;;;5.15;;
46084;SDS011;31823;47.032;8.310;2024-03-02T14:37:35;8.80;;;4.90;;
46084;SDS011;31823;47.032;8.310;2024-03-02T14:40:01;10.15;;;5.70;;
46084;SDS011;31823;47.032;8.310;2024-03-02T14:42:30;7.72;;;4.20;;
46084;SDS011;31823;47.032;8.310;2024-03-02T14:44:56;7.95;;;5.20;;
46084;SDS011;31823;47.032;8.310;2024-03-02T14:47:22;9.05;;;5.38;;
46084;SDS011;31823;47.032;8.310;2024-03-02T14:49:48;7.45;;;4.70;;
46084;SDS011;31823;47.032;8.310;2024-03-02T14:52:13;7.47;;;4.55;;